Time;durP1;ratioP1;P1;durP2;ratioP2;P2;SDS_P1;SDS_P2;PMS_P1;PMS_P2;Temp;Humidity;BMP_temperature;BMP_pressure;BME280_temperature;BME280_humidity;BME280_pressure;Samples;Min_cycle;Max_cycle;Signal;HPM_P1;HPM_P2
2022/01/22 00:01:31;;;;;;;5.60;3.50;;;;;;;22.52;30.35;101067.55;102823;1322;74764;-84
2022/01/22 00:04:20;;;;;;;5.50;3.30;;;;;;;22.52;30.52;101065.23;103044;1322;61644;-83
2022/01/22 00:07:02;;;;;;;;;;;;;;;;;;;;;
2022/01/22 00:09:58;;;;;;;;;;;;;;;;;;;;;
2022/01/22 00:15:43;;;;;;;5.80;3.20;;;;;;;22.52;30.45;101070.58;104066;1313;61329;-89
2022/01/22 00:18:30;;;;;;;;;;;;;;;;;;;;;
2022/01/22 00:21:05;;;;;;;6.20;3.50;;;;;;;22.52;30.29;101075.03;104277;1313;72885;-82
2022/01/22 00:24:03;;;;;;;6.40;3.40;;;;;;;22.52;30.39;101071.80;104301;1313;74843;-81
2022/01/22 00:26:49;;;;;;;5.10;3.10;;;;;;;22.54;30.27;101068.82;104259;1313;61193;-85
2022/01/22 00:29:35;;;;;;;5.30;3.20;;;;;;;22.54;30.27;101063.26;104325;1313;61257;-84
2022/01/22 00:32:27;;;;;;;;;;;;;;;;;;;;;
2022/01/22 00:35:13;;;;;;;5.50;3.50;;;;;;;22.55;30.39;101065.70;104803;1303;75731;-82
2022/01/22 00:38:03;;;;;;;5.20;3.20;;;;;;;22.54;30.19;101061.25;104806;1303;61339;-82
2022/01/22 00:40:51;;;;;;;5.60;3.30;;;;;;;22.54;30.33;101062.15;104789;1304;61494;-81
2022/01/22 00:43:26;;;;;;;5.10;3.20;;;;;;;22.54;30.33;101064.52;104849;1303;72850;-82
2022/01/22 00:46:06;;;;;;;;;;;;;;;;;;;;;
2022/01/22 00:48:47;;;;;;;5.90;3.40;;;;;;;22.55;30.14;101060.33;104870;1303;61971;-82
2022/01/22 00:51:40;;;;;;;5.10;3.20;;;;;;;22.55;30.26;101057.05;104785;1303;61389;-83
2022/01/22 00:54:16;;;;;;;4.90;3.20;;;;;;;22.55;30.30;101060.70;104857;1303;73966;-84
2022/01/22 00:57:05;;;;;;;5.70;3.30;;;;;;;22.55;30.32;101061.23;104838;1303;75876;-85
2022/01/22 00:59:54;;;;;;;5.30;3.20;;;;;;;22.54;30.25;101063.94;104804;1303;61540;-78
2022/01/22 01:02:42;;;;;;;5.80;3.40;;;;;;;22.54;30.28;101068.30;104690;1305;61742;-81
2022/01/22 01:05:12;;;;;;;5.70;3.60;;;;;;;22.54;30.33;101068.06;104873;1305;73808;-82
2022/01/22 01:08:23;;;;;;;5.30;3.40;;;;;;;22.54;30.33;101065.74;104342;1308;76288;-84
2022/01/22 01:10:49;;;;;;;5.80;3.20;;;;;;;22.54;30.23;101056.61;104427;1309;61477;-86
2022/01/22 01:13:48;;;;;;;4.90;3.30;;;;;;;22.54;30.21;101056.94;104357;1307;61302;-88
2022/01/22 01:34:56;;;;;;;6.80;3.50;;;;;;;22.51;30.28;101025.59;104131;1314;61324;-83
2022/01/22 01:37:45;;;;;;;7.10;3.60;;;;;;;22.52;30.18;101022.16;104086;1314;61354;-79
2022/01/22 01:40:27;;;;;;;5.50;3.60;;;;;;;22.52;30.22;101019.61;104108;1314;72998;-85
2022/01/22 01:43:25;;;;;;;6.50;3.80;;;;;;;22.52;30.34;101014.27;103738;1317;74069;-87
2022/01/22 01:46:11;;;;;;;6.30;3.50;;;;;;;22.52;30.27;101009.05;103649;1315;61307;-83
2022/01/22 01:49:06;;;;;;;6.90;3.60;;;;;;;22.53;30.26;101001.11;103681;1317;61340;-83
2022/01/22 01:52:05;;;;;;;5.50;3.20;;;;;;;22.52;30.24;100998.09;103856;1316;72895;-85
2022/01/22 01:55:03;;;;;;;5.20;3.40;;;;;;;22.52;30.30;100995.25;103893;1316;76037;-81
2022/01/22 01:57:51;;;;;;;6.90;3.50;;;;;;;22.53;30.36;100990.52;103885;1316;61303;-82
2022/01/22 02:00:43;;;;;;;6.10;3.30;;;;;;;22.53;30.32;100984.80;103700;1317;61431;-82
2022/01/22 02:03:32;;;;;;;5.80;3.50;;;;;;;22.52;30.27;100987.49;104151;1313;72895;-84
2022/01/22 02:06:15;;;;;;;6.60;3.40;;;;;;;22.53;30.29;100987.84;104277;1313;74897;-83
2022/01/22 02:08:59;;;;;;;5.20;3.20;;;;;;;22.53;30.18;100990.88;104283;1313;61578;-82
2022/01/22 02:11:56;;;;;;;;;;;;;;;;;;;;;
2022/01/22 02:24:58;;;;;;;4.90;3.30;;;;;;;22.51;30.20;100984.36;104864;1303;62024;-83
2022/01/22 02:28:04;;;;;;;5.00;3.10;;;;;;;22.52;30.21;100994.32;104672;1305;72813;-84
2022/01/22 02:30:56;;;;;;;;;;;;;;;;;;;;;
2022/01/22 02:37:33;;;;;;;5.80;3.20;;;;;;;22.53;30.32;100991.41;104811;1305;61333;-83
2022/01/22 02:43:10;;;;;;;6.20;3.40;;;;;;;22.52;30.22;100989.45;104726;1305;74667;-81
2022/01/22 02:46:03;;;;;;;5.40;3.30;;;;;;;22.53;30.26;100991.27;104668;1305;61553;-84
2022/01/22 02:49:05;;;;;;;6.00;3.50;;;;;;;22.52;30.13;100998.98;104616;1305;61171;-83
2022/01/22 02:51:54;;;;;;;5.60;3.40;;;;;;;22.52;30.27;100993.77;104825;1305;73191;-83
2022/01/22 02:55:03;;;;;;;5.90;3.50;;;;;;;22.53;30.20;100990.33;104803;1305;76055;-84
2022/01/22 02:58:10;;;;;;;6.10;3.70;;;;;;;22.52;30.21;100984.43;104242;1313;61606;-83
2022/01/22 03:00:55;;;;;;;5.10;3.20;;;;;;;22.52;30.27;100974.07;103868;1319;61220;-82
2022/01/22 03:03:41;;;;;;;5.30;3.60;;;;;;;22.52;30.17;100970.45;103599;1319;71914;-85
2022/01/22 03:06:19;;;;;;;5.00;3.30;;;;;;;22.52;30.10;100965.10;103598;1319;74402;-83
2022/01/22 03:09:15;;;;;;;5.50;3.30;;;;;;;22.53;30.11;100962.19;103473;1319;61917;-83
2022/01/22 03:21:32;;;;;;;5.50;3.30;;;;;;;22.52;29.98;100957.61;102531;1331;61249;-82
2022/01/22 03:27:37;;;;;;;6.20;3.70;;;;;;;22.51;30.04;100967.48;102554;1328;74237;-83
2022/01/22 03:30:08;;;;;;;6.60;3.90;;;;;;;22.52;30.03;100968.73;102514;1329;74915;-82
2022/01/22 03:33:02;;;;;;;5.10;3.40;;;;;;;22.52;30.01;100964.41;102514;1329;60391;-86
2022/01/22 03:35:56;;;;;;;5.80;3.50;;;;;;;22.52;30.05;100965.29;102796;1325;61539;-87
2022/01/22 03:38:43;;;;;;;;;;;;;;;;;;;;;
2022/01/22 03:41:29;;;;;;;6.20;3.80;;;;;;;22.51;29.98;100961.56;103643;1319;75732;-82
2022/01/22 03:44:15;;;;;;;;;;;;;;;;;;;;;
2022/01/22 03:47:00;;;;;;;5.80;3.20;;;;;;;22.51;30.02;100952.13;103482;1319;61722;-82
2022/01/22 03:49:50;;;;;;;6.10;3.70;;;;;;;22.51;29.94;100954.79;103651;1319;72715;-86
2022/01/22 03:52:52;;;;;;;5.40;3.30;;;;;;;22.51;29.94;100951.59;103650;1319;74986;-84
2022/01/22 03:55:53;;;;;;;5.20;3.50;;;;;;;22.51;30.04;100951.57;103881;1313;62077;-82
2022/01/22 03:58:40;;;;;;;6.00;3.70;;;;;;;22.51;29.97;100951.02;103919;1313;61600;-82
2022/01/22 04:04:40;;;;;;;5.30;3.50;;;;;;;22.51;30.00;100947.63;103803;1316;75012;-83
2022/01/22 04:08:10;;;;;;;5.30;3.20;;;;;;;22.50;29.92;100945.86;103180;1322;61343;-87
2022/01/22 04:10:32;;;;;;;4.90;3.10;;;;;;;22.51;29.95;100951.95;102908;1322;61444;-86
2022/01/22 04:13:32;;;;;;;5.90;3.50;;;;;;;22.51;29.95;100949.02;103057;1322;74099;-82
2022/01/22 04:16:17;;;;;;;5.10;3.50;;;;;;;22.50;29.86;100947.34;103165;1322;75891;-81
2022/01/22 04:25:34;;;;;;;5.50;3.40;;;;;;;22.49;29.88;100948.45;103045;1323;71630;-85
2022/01/22 04:28:20;;;;;;;5.80;3.30;;;;;;;22.50;29.91;100947.16;103046;1322;73849;-82
2022/01/22 04:31:06;;;;;;;5.50;3.30;;;;;;;22.50;29.84;100945.40;103360;1319;61286;-82
2022/01/22 04:33:38;;;;;;;7.60;4.10;;;;;;;22.49;29.96;100946.27;103360;1319;62134;-84
2022/01/22 04:36:41;;;;;;;5.70;3.50;;;;;;;22.50;29.92;100946.63;103213;1322;71634;-83
2022/01/22 04:39:28;;;;;;;5.00;3.30;;;;;;;22.50;29.90;100942.88;103415;1319;75852;-84
2022/01/22 04:42:17;;;;;;;6.00;3.50;;;;;;;22.50;30.00;100941.77;103990;1311;61070;-83
2022/01/22 04:45:26;;;;;;;5.50;3.30;;;;;;;22.49;30.00;100939.83;104339;1307;61814;-82
2022/01/22 04:57:58;;;;;;;5.60;3.50;;;;;;;22.49;29.85;100945.60;102614;1328;62899;-82
2022/01/22 05:00:35;;;;;;;5.30;3.30;;;;;;;22.49;29.86;100948.98;102569;1328;73793;-82
2022/01/22 05:03:22;;;;;;;5.80;3.60;;;;;;;22.50;29.95;100945.20;102513;1331;74883;-85
2022/01/22 05:06:08;;;;;;;5.90;3.20;;;;;;;22.50;29.82;100941.23;102653;1328;61631;-84
2022/01/22 05:09:03;;;;;;;5.30;3.20;;;;;;;22.50;29.92;100934.07;102693;1328;61282;-82
2022/01/22 05:11:58;;;;;;;5.20;3.60;;;;;;;22.50;29.92;100936.94;102710;1329;75133;-86
2022/01/22 05:14:52;;;;;;;5.70;3.30;;;;;;;22.50;29.93;100934.42;102637;1328;75999;-81
2022/01/22 05:17:49;;;;;;;5.10;3.10;;;;;;;22.50;29.90;100941.79;102304;1335;61538;-81
2022/01/22 05:20:45;;;;;;;5.40;3.60;;;;;;;22.50;29.90;100946.63;102299;1335;61236;-85
2022/01/22 05:23:40;;;;;;;;;;;;;;;;;;;;;
2022/01/22 05:26:49;;;;;;;5.00;3.20;;;;;;;22.50;29.86;100944.48;102267;1334;74735;-83
2022/01/22 05:33:34;;;;;;;6.70;3.50;;;;;;;22.50;29.79;100945.39;102829;1322;61218;-89
2022/01/22 05:39:24;;;;;;;7.40;3.30;;;;;;;22.49;29.84;100944.34;102704;1328;72528;-80
2022/01/22 05:42:22;;;;;;;6.60;3.50;;;;;;;22.50;29.81;100943.59;102707;1328;61388;-82
2022/01/22 05:44:57;;;;;;;5.70;3.50;;;;;;;22.49;29.66;100940.73;102686;1328;61416;-84
2022/01/22 05:48:00;;;;;;;5.40;3.30;;;;;;;22.49;29.63;100943.08;102428;1331;74402;-82
2022/01/22 05:51:03;;;;;;;6.20;3.30;;;;;;;22.50;29.73;100942.84;102303;1332;74897;-83
2022/01/22 06:00:06;;;;;;;6.80;3.30;;;;;;;22.49;29.72;100942.73;102513;1325;71665;-85
2022/01/22 06:02:41;;;;;;;4.80;3.20;;;;;;;22.50;29.73;100947.72;102804;1325;74618;-82
2022/01/22 06:05:29;;;;;;;5.40;3.20;;;;;;;22.50;29.71;100946.63;102846;1325;61202;-82
2022/01/22 06:08:05;;;;;;;5.40;3.40;;;;;;;22.50;29.71;100952.86;102510;1329;61189;-83
2022/01/22 06:10:55;;;;;;;4.80;3.00;;;;;;;22.50;29.66;100951.44;102641;1329;73859;-84
2022/01/22 06:13:44;;;;;;;5.20;3.20;;;;;;;22.50;29.76;100947.70;102523;1328;74955;-85
2022/01/22 06:16:36;;;;;;;5.40;3.40;;;;;;;22.50;29.56;100941.40;102818;1325;61333;-81
2022/01/22 06:19:14;;;;;;;4.70;3.30;;;;;;;22.50;29.71;100941.60;102720;1325;61222;-78
2022/01/22 06:22:30;;;;;;;5.30;3.10;;;;;;;22.50;29.64;100939.83;102682;1329;71428;-85
2022/01/22 06:25:18;;;;;;;4.80;3.20;;;;;;;22.50;29.67;100939.10;102582;1326;73602;-81
2022/01/22 06:28:04;;;;;;;5.60;3.30;;;;;;;22.50;29.70;100943.88;102993;1325;61706;-83
2022/01/22 06:30:50;;;;;;;5.40;3.30;;;;;;;22.51;29.76;100941.50;102986;1325;61391;-82
2022/01/22 06:33:44;;;;;;;6.40;3.50;;;;;;;22.51;29.67;100936.85;103016;1319;73328;-83
2022/01/22 06:36:33;;;;;;;7.50;3.30;;;;;;;22.51;29.60;100938.11;103330;1319;75680;-83
2022/01/22 06:42:16;;;;;;;5.10;3.00;;;;;;;22.51;29.50;100924.08;103295;1323;61697;-82
2022/01/22 06:45:03;;;;;;;5.90;3.40;;;;;;;22.52;29.58;100930.35;103428;1317;73331;-82
2022/01/22 06:48:02;;;;;;;4.70;3.10;;;;;;;22.53;29.41;100926.13;103946;1317;75873;-79
2022/01/22 06:50:47;;;;;;;5.60;3.40;;;;;;;22.53;29.45;100919.85;103946;1317;61733;-83
2022/01/22 06:53:40;;;;;;;8.20;3.50;;;;;;;22.53;29.60;100926.30;103729;1317;61199;-79
2022/01/22 06:56:35;;;;;;;5.10;3.40;;;;;;;22.53;29.48;100923.04;103689;1319;73880;-81
2022/01/22 06:59:28;;;;;;;6.00;3.60;;;;;;;22.53;29.45;100923.25;103433;1317;75827;-86
2022/01/22 07:02:29;;;;;;;6.90;3.70;;;;;;;22.53;29.34;100916.80;104002;1317;61730;-82
2022/01/22 07:05:17;;;;;;;6.50;3.60;;;;;;;22.54;29.43;100921.02;104158;1314;61198;-84
2022/01/22 07:07:52;;;;;;;5.20;3.70;;;;;;;22.54;29.22;100922.98;103539;1319;72843;-84
2022/01/22 07:10:36;;;;;;;;;;;;;;;;;;;;;
2022/01/22 07:13:22;;;;;;;5.70;3.50;;;;;;;22.55;29.41;100927.39;103385;1319;61314;-82
2022/01/22 07:16:08;;;;;;;6.40;3.60;;;;;;;22.55;29.37;100916.28;103539;1319;61201;-85
2022/01/22 07:18:59;;;;;;;5.80;3.90;;;;;;;22.55;29.34;100923.96;103394;1319;72643;-86
2022/01/22 07:21:58;;;;;;;5.70;3.40;;;;;;;22.55;29.27;100916.13;104149;1316;75798;-82
2022/01/22 07:24:47;;;;;;;6.30;3.50;;;;;;;22.55;29.38;100915.23;104155;1316;61176;-87
2022/01/22 07:27:35;;;;;;;5.90;3.50;;;;;;;22.54;29.52;100914.16;103393;1317;61288;-81
2022/01/22 07:30:25;;;;;;;5.20;3.70;;;;;;;22.55;29.19;100913.06;104088;1316;74064;-83
2022/01/22 07:33:12;;;;;;;5.90;3.40;;;;;;;22.55;29.35;100911.78;103255;1322;74883;-83
2022/01/22 07:36:16;;;;;;;5.70;3.40;;;;;;;22.55;29.43;100912.66;103324;1319;61847;-84
2022/01/22 07:39:05;;;;;;;5.70;3.50;;;;;;;22.55;29.47;100909.44;103805;1318;61899;-81
2022/01/22 07:41:37;;;;;;;;;;;;;;;22.56;29.34;100905.64;103704;1319;72759;-83
2022/01/22 07:44:17;;;;;;;5.40;3.60;;;;;;;22.53;29.51;100908.33;103379;1319;75309;-84
2022/01/22 07:47:12;;;;;;;6.50;3.70;;;;;;;22.55;29.50;100909.98;104260;1313;61306;-78
2022/01/22 07:49:53;;;;;;;;;;;;;;;;;;;;;
2022/01/22 07:52:42;;;;;;;5.70;3.30;;;;;;;22.56;29.45;100912.60;104177;1313;73737;-86
2022/01/22 07:55:29;;;;;;;6.00;3.70;;;;;;;22.56;29.41;100910.08;104269;1312;74802;-82
2022/01/22 07:58:21;;;;;;;5.90;3.60;;;;;;;22.56;29.33;100904.14;104293;1313;61434;-81
2022/01/22 08:01:01;;;;;;;6.60;3.40;;;;;;;22.57;29.30;100898.56;104263;1313;62006;-82
2022/01/22 08:04:23;;;;;;;5.50;3.60;;;;;;;22.57;29.28;100901.04;104197;1313;71773;-80
2022/01/22 08:07:06;;;;;;;5.80;3.60;;;;;;;22.57;29.30;100897.46;104210;1313;74805;-83
2022/01/22 08:10:02;;;;;;;6.70;3.60;;;;;;;22.57;29.42;100890.47;104382;1305;61223;-83
2022/01/22 08:12:51;;;;;;;6.20;3.20;;;;;;;22.57;29.23;100897.44;104455;1305;61279;-83
2022/01/22 08:15:41;;;;;;;6.90;3.70;;;;;;;22.57;29.16;100905.34;104661;1305;73383;-85
2022/01/22 08:18:12;;;;;;;6.50;3.70;;;;;;;22.58;29.33;100907.42;104747;1305;76210;-79
2022/01/22 08:21:21;;;;;;;;;;;;;;;;;;;;;
2022/01/22 08:24:08;;;;;;;5.70;3.60;;;;;;;22.58;29.38;100907.59;104800;1304;61190;-88
2022/01/22 08:27:17;;;;;;;6.10;3.40;;;;;;;22.58;29.43;100905.64;104779;1305;73018;-85
2022/01/22 08:29:43;;;;;;;6.00;3.60;;;;;;;22.58;29.34;100907.08;104525;1305;73746;-80
2022/01/22 08:38:39;;;;;;;6.50;3.60;;;;;;;22.57;29.13;100903.54;104286;1311;74179;-86
2022/01/22 08:41:35;;;;;;;6.10;3.60;;;;;;;22.58;29.42;100901.70;104303;1311;74342;-83
2022/01/22 08:44:19;;;;;;;7.20;3.40;;;;;;;22.58;29.43;100901.36;104232;1311;61235;-84
2022/01/22 08:47:00;;;;;;;5.20;3.50;;;;;;;22.58;29.32;100897.23;104342;1311;61753;-84
2022/01/22 08:49:57;;;;;;;;;;;;;;;;;;;;;
2022/01/22 08:52:35;;;;;;;6.60;3.70;;;;;;;22.58;29.53;100902.61;103920;1317;75358;-82
2022/01/22 08:55:25;;;;;;;;;;;;;;;;;;;;;
2022/01/22 08:58:37;;;;;;;7.00;4.10;;;;;;;22.57;29.33;100895.30;103973;1316;62308;-82
2022/01/22 09:01:14;;;;;;;4.90;3.50;;;;;;;22.58;29.51;100878.73;104120;1316;72958;-83
2022/01/22 09:04:00;;;;;;;6.00;3.70;;;;;;;22.59;29.49;100873.99;103889;1316;75797;-86
2022/01/22 09:06:53;;;;;;;5.90;3.70;;;;;;;22.60;29.40;100872.50;103093;1322;61466;-83
2022/01/22 09:09:48;;;;;;;5.10;3.30;;;;;;;22.59;29.34;100867.35;103234;1322;61211;-83
2022/01/22 09:12:34;;;;;;;7.40;3.60;;;;;;;22.60;29.46;100872.50;103187;1319;73852;-86
2022/01/22 09:15:22;;;;;;;5.20;3.20;;;;;;;22.60;29.31;100868.56;103417;1319;74888;-84
2022/01/22 09:18:11;;;;;;;4.80;3.30;;;;;;;22.59;29.34;100863.55;103389;1318;61284;-82
2022/01/22 09:24:00;;;;;;;;;;;;;;;22.60;29.33;100853.30;103001;1325;73880;-82
2022/01/22 09:26:50;;;;;;;5.20;3.20;;;;;;;22.58;29.32;100854.35;102684;1326;74753;-89
2022/01/22 09:29:37;;;;;;;5.50;3.50;;;;;;;22.58;29.44;100842.64;103034;1321;61342;-82
2022/01/22 09:32:32;;;;;;;6.00;3.40;;;;;;;22.59;29.31;100840.46;103380;1318;61380;-83
2022/01/22 09:35:17;;;;;;;6.20;3.50;;;;;;;22.59;29.28;100833.80;103357;1318;73915;-83
2022/01/22 09:38:21;;;;;;;5.90;3.60;;;;;;;22.59;29.36;100832.71;102966;1324;73308;-81
2022/01/22 09:40:47;;;;;;;5.40;3.10;;;;;;;22.60;29.30;100837.33;102610;1325;61642;-81
2022/01/22 09:43:25;;;;;;;6.70;3.90;;;;;;;22.60;29.40;100836.23;102842;1319;61233;-84
2022/01/22 09:45:50;;;;;;;6.10;3.50;;;;;;;22.61;29.35;100833.52;103136;1319;72711;-83
2022/01/22 09:48:36;;;;;;;7.50;3.90;;;;;;;22.62;29.36;100827.73;103332;1317;61288;-87
2022/01/22 09:51:22;;;;;;;5.30;3.40;;;;;;;22.62;29.32;100821.95;103240;1322;61317;-84
2022/01/22 09:54:12;;;;;;;5.60;3.60;;;;;;;22.62;29.36;100821.77;103216;1322;64406;-87
2022/01/22 09:57:02;;;;;;;5.30;3.40;;;;;;;22.62;29.42;100822.12;103258;1321;73949;-85
2022/01/22 09:59:49;;;;;;;6.10;3.30;;;;;;;22.62;29.39;100819.23;103175;1320;76208;-80
2022/01/22 10:02:21;;;;;;;6.90;3.60;;;;;;;22.63;29.18;100818.81;103810;1316;61767;-84
2022/01/22 10:04:58;;;;;;;6.80;3.60;;;;;;;22.64;29.21;100823.44;103696;1316;61179;-85
2022/01/22 10:07:36;;;;;;;5.40;3.50;;;;;;;22.64;29.26;100821.48;103915;1316;72661;-81
2022/01/22 10:10:26;;;;;;;6.40;3.40;;;;;;;22.64;29.32;100818.36;104000;1316;76240;-80
2022/01/22 10:13:12;;;;;;;5.90;3.60;;;;;;;22.64;29.43;100812.27;101989;1317;2750659;-82
2022/01/22 10:15:51;;;;;;;6.10;3.20;;;;;;;22.64;29.26;100807.04;103659;1313;61328;-81
2022/01/22 10:19:09;;;;;;;5.80;3.50;;;;;;;22.65;29.38;100807.36;104254;1311;71504;-86
2022/01/22 10:21:56;;;;;;;6.50;3.80;;;;;;;22.66;29.22;100801.40;104123;1311;75931;-81
2022/01/22 10:25:01;;;;;;;;;;;;;;;;;;;;;
2022/01/22 10:27:47;;;;;;;6.70;3.30;;;;;;;22.66;29.36;100798.16;104264;1311;61432;-79
2022/01/22 10:30:42;;;;;;;6.00;3.40;;;;;;;22.66;29.21;100790.20;104704;1305;73806;-80
2022/01/22 10:33:31;;;;;;;8.40;4.30;;;;;;;22.67;29.37;100786.21;104870;1304;75808;-84
2022/01/22 10:36:34;;;;;;;6.40;3.70;;;;;;;22.67;29.43;100788.90;104634;1305;61245;-82
2022/01/22 10:39:33;;;;;;;5.90;3.50;;;;;;;22.67;29.24;100788.68;104845;1305;61475;-84
2022/01/22 10:42:33;;;;;;;;;;;;;;;;;;;;;
2022/01/22 10:45:29;;;;;;;;;;;;;;;;;;;;;
2022/01/22 10:48:40;;;;;;;6.50;3.50;;;;;;;22.68;29.18;100792.63;104494;1305;61276;-83
2022/01/22 10:51:23;;;;;;;8.10;3.40;;;;;;;22.68;29.38;100784.86;104856;1305;61308;-82
2022/01/22 10:54:15;;;;;;;5.60;3.10;;;;;;;22.68;29.26;100778.59;104578;1305;72889;-88
2022/01/22 10:57:30;;;;;;;6.40;3.50;;;;;;;22.68;29.13;100775.55;104857;1305;75862;-86
2022/01/22 11:00:22;;;;;;;5.50;3.40;;;;;;;22.68;29.33;100771.80;104270;1314;61228;-85
2022/01/22 11:03:37;;;;;;;6.10;3.10;;;;;;;22.68;29.39;100770.52;104341;1311;61541;-89
2022/01/22 11:06:33;;;;;;;4.80;3.20;;;;;;;22.67;29.13;100769.32;104147;1317;72865;-84
2022/01/22 11:09:28;;;;;;;4.10;2.90;;;;;;;22.67;29.36;100768.45;104115;1315;74754;-84
2022/01/22 11:12:07;;;;;;;5.00;3.50;;;;;;;22.67;29.33;100766.63;104120;1317;61167;-87
2022/01/22 11:14:53;;;;;;;;;;;;;;;22.68;29.28;100763.34;104114;1316;61422;-81
2022/01/22 11:17:54;;;;;;;6.10;3.30;;;;;;;22.66;29.27;100758.29;104070;1317;73701;-86
2022/01/22 11:20:40;;;;;;;6.50;3.30;;;;;;;22.67;29.32;100756.61;104118;1317;75850;-81
2022/01/22 11:23:20;;;;;;;5.50;3.30;;;;;;;22.67;29.31;100749.77;104130;1317;61307;-86
2022/01/22 11:26:15;;;;;;;;;;;;;;;;;;;;;
2022/01/22 11:29:07;;;;;;;5.20;3.30;;;;;;;22.68;29.32;100736.98;103151;1322;73834;-85
2022/01/22 11:31:53;;;;;;;5.60;3.20;;;;;;;22.69;29.24;100732.95;103131;1323;73812;-85
2022/01/22 11:34:32;;;;;;;5.10;3.40;;;;;;;22.69;29.30;100727.75;103046;1322;61303;-83
2022/01/22 11:38:11;;;;;;;5.40;3.10;;;;;;;22.70;29.35;100728.21;103156;1319;61502;-81
2022/01/22 11:41:23;;;;;;;4.90;3.10;;;;;;;22.69;29.27;100726.31;102699;1327;72870;-85
2022/01/22 11:44:17;;;;;;;5.50;3.40;;;;;;;22.69;29.33;100727.21;103216;1319;74823;-81
2022/01/22 11:47:06;;;;;;;4.90;3.00;;;;;;;22.69;29.24;100725.05;103309;1319;61460;-84
2022/01/22 11:50:03;;;;;;;5.20;2.90;;;;;;;22.69;29.26;100722.91;102971;1325;61628;-82
2022/01/22 11:52:49;;;;;;;5.00;2.90;;;;;;;22.69;29.16;100717.50;102630;1326;73983;-82
2022/01/22 11:55:24;;;;;;;5.30;3.00;;;;;;;22.70;29.25;100711.37;102583;1328;76191;-85
2022/01/22 11:58:11;;;;;;;4.40;2.90;;;;;;;22.70;29.22;100711.52;102513;1330;61381;-88
2022/01/22 12:00:43;;;;;;;5.50;2.90;;;;;;;22.70;29.19;100708.10;102622;1328;61476;-82
2022/01/22 12:03:32;;;;;;;4.00;2.70;;;;;;;22.70;29.12;100706.84;102526;1328;72772;-84
2022/01/22 12:06:14;;;;;;;4.40;2.80;;;;;;;22.71;29.12;100714.67;102784;1325;74883;-82
2022/01/22 12:09:30;;;;;;;4.40;2.80;;;;;;;22.71;29.17;100716.64;103003;1325;61480;-82
2022/01/22 12:15:55;;;;;;;6.20;2.90;;;;;;;22.70;29.15;100715.67;103130;1321;72750;-83
2022/01/22 12:18:34;;;;;;;5.50;2.90;;;;;;;22.70;29.26;100714.20;102704;1328;75806;-78
2022/01/22 12:21:36;;;;;;;4.60;2.80;;;;;;;22.71;29.09;100711.64;102772;1322;61258;-82
2022/01/22 12:24:12;;;;;;;4.60;2.90;;;;;;;22.71;29.15;100709.27;102994;1321;61178;-81
2022/01/22 12:26:53;;;;;;;5.00;3.00;;;;;;;22.71;29.08;100709.45;103089;1322;72612;-83
2022/01/22 12:29:51;;;;;;;4.80;2.60;;;;;;;22.72;29.16;100711.04;102739;1322;74812;-87
2022/01/22 12:32:43;;;;;;;4.50;2.60;;;;;;;22.72;29.26;100704.58;102984;1326;61402;-83
2022/01/22 12:35:34;;;;;;;4.50;2.90;;;;;;;22.72;29.05;100708.54;102850;1326;61511;-81
2022/01/22 12:38:43;;;;;;;;;;;;;;;;;;;;;
2022/01/22 12:44:34;;;;;;;4.50;2.80;;;;;;;22.72;29.03;100703.48;102798;1324;61341;-82
2022/01/22 12:47:42;;;;;;;4.40;2.50;;;;;;;22.71;29.01;100697.95;102639;1325;61352;-82
2022/01/22 12:50:30;;;;;;;4.20;2.60;;;;;;;22.72;29.05;100704.40;102843;1322;72804;-86
2022/01/22 12:53:37;;;;;;;5.50;2.70;;;;;;;22.71;29.13;100704.42;102686;1326;76238;-88
2022/01/22 12:57:08;;;;;;;5.00;2.60;;;;;;;22.73;29.05;100707.53;102874;1322;61311;-85
2022/01/22 12:59:38;;;;;;;4.60;2.70;;;;;;;22.73;29.09;100707.71;102945;1325;61494;-84
2022/01/22 13:02:18;;;;;;;4.90;2.60;;;;;;;22.73;29.13;100708.55;102750;1329;73845;-82
2022/01/22 13:05:25;;;;;;;4.70;2.60;;;;;;;22.73;29.16;100708.42;102683;1328;73522;-81
2022/01/22 13:07:54;;;;;;;4.60;2.90;;;;;;;22.74;28.95;100713.73;102670;1328;61444;-79
2022/01/22 13:10:53;;;;;;;4.70;2.70;;;;;;;22.74;29.02;100712.80;103007;1322;61212;-84
2022/01/22 13:13:37;;;;;;;4.90;2.70;;;;;;;22.75;29.09;100709.36;103072;1322;73941;-79
2022/01/22 13:16:25;;;;;;;3.60;2.40;;;;;;;22.74;28.93;100702.05;103032;1322;74118;-84
2022/01/22 13:19:05;;;;;;;6.10;2.60;;;;;;;22.74;28.94;100701.88;102691;1327;61294;-79
2022/01/22 13:21:47;;;;;;;4.70;2.70;;;;;;;22.74;28.91;100701.31;102764;1329;61421;-82
2022/01/22 13:24:41;;;;;;;;;;;;;;;;;;;;;
2022/01/22 13:27:31;;;;;;;4.10;2.60;;;;;;;22.74;28.86;100714.56;102381;1331;76550;-86
2022/01/22 13:30:31;;;;;;;3.90;2.70;;;;;;;22.74;28.90;100717.26;103191;1319;61217;-86
2022/01/22 13:36:27;;;;;;;3.90;2.20;;;;;;;22.75;28.89;100720.78;103680;1320;72897;-80
2022/01/22 13:48:37;;;;;;;4.90;2.40;;;;;;;22.76;29.09;100724.70;104289;1313;73258;-83
2022/01/22 13:51:23;;;;;;;4.40;2.40;;;;;;;22.76;28.96;100730.60;104175;1313;75842;-83
2022/01/22 13:54:08;;;;;;;;;;;;;;;;;;;;;
2022/01/22 13:57:05;;;;;;;3.90;2.30;;;;;;;22.78;28.91;100734.24;104472;1305;61500;-83
2022/01/22 13:59:55;;;;;;;4.40;2.30;;;;;;;22.79;28.76;100739.05;104455;1305;74215;-83
2022/01/22 14:05:46;;;;;;;5.80;2.80;;;;;;;22.79;28.99;100742.73;103508;1319;60324;-82
2022/01/22 14:08:47;;;;;;;4.30;2.50;;;;;;;22.79;29.06;100745.05;103548;1317;61574;-83
2022/01/22 14:11:40;;;;;;;5.10;2.60;;;;;;;22.80;29.04;100741.44;103656;1319;72860;-82
2022/01/22 14:14:17;;;;;;;4.20;2.60;;;;;;;22.80;28.94;100742.13;103573;1318;75816;-84
2022/01/22 14:17:09;;;;;;;4.40;2.50;;;;;;;22.81;28.99;100740.84;103532;1319;61444;-83
2022/01/22 14:20:09;;;;;;;4.40;2.60;;;;;;;22.81;28.92;100742.79;103662;1319;61553;-82
2022/01/22 14:23:20;;;;;;;4.50;2.60;;;;;;;22.81;28.98;100742.80;103646;1319;72868;-87
2022/01/22 14:26:50;;;;;;;4.30;2.60;;;;;;;22.81;28.89;100747.79;103401;1318;76022;-82
2022/01/22 14:29:43;;;;;;;;;;;;;;;;;;;;;
2022/01/22 14:32:35;;;;;;;4.30;2.40;;;;;;;22.82;28.91;100762.44;102503;1331;61212;-83
2022/01/22 14:35:24;;;;;;;3.90;2.30;;;;;;;22.81;28.94;100763.54;102131;1331;72900;-83
2022/01/22 14:37:56;;;;;;;3.90;2.70;;;;;;;22.82;28.86;100764.02;102058;1337;75786;-83
2022/01/22 14:44:27;;;;;;;4.30;2.40;;;;;;;22.83;28.89;100772.42;103040;1323;61486;-86
2022/01/22 14:47:26;;;;;;;3.90;2.40;;;;;;;22.83;28.83;100772.43;102802;1324;73951;-86
2022/01/22 14:50:12;;;;;;;4.50;2.60;;;;;;;22.83;28.94;100774.93;102694;1329;72962;-82
2022/01/22 14:53:01;;;;;;;4.10;2.60;;;;;;;22.83;28.89;100778.30;102577;1329;61390;-84
2022/01/22 14:55:47;;;;;;;5.10;2.70;;;;;;;22.83;28.82;100774.51;102083;1337;61358;-83
2022/01/22 14:58:13;;;;;;;5.80;2.80;;;;;;;22.83;28.89;100777.77;101977;1337;73306;-80
2022/01/22 15:01:14;;;;;;;;;;;;;;;;;;;;;
2022/01/22 15:04:08;;;;;;;4.50;2.80;;;;;;;22.84;28.82;100788.14;102127;1331;61339;-84
2022/01/22 15:06:57;;;;;;;4.10;2.30;;;;;;;22.84;28.81;100792.98;102490;1331;62787;-87
2022/01/22 15:09:35;;;;;;;6.20;3.20;;;;;;;22.83;28.94;100798.94;102472;1331;72819;-89
2022/01/22 15:12:07;;;;;;;5.40;2.80;;;;;;;22.83;28.98;100807.02;102537;1331;75675;-82
2022/01/22 15:15:11;;;;;;;4.30;2.60;;;;;;;22.83;28.93;100813.49;102610;1325;62066;-83
2022/01/22 15:18:11;;;;;;;5.00;2.90;;;;;;;22.83;28.88;100822.63;102806;1324;61175;-82
2022/01/22 15:21:10;;;;;;;5.60;2.90;;;;;;;22.84;28.98;100822.41;102912;1325;71590;-82
2022/01/22 15:23:56;;;;;;;4.80;2.70;;;;;;;22.84;29.01;100826.72;102966;1323;76007;-79
2022/01/22 15:26:42;;;;;;;4.50;2.80;;;;;;;22.84;29.04;100832.45;102930;1319;61318;-85
2022/01/22 15:29:29;;;;;;;5.40;3.10;;;;;;;22.84;28.91;100839.09;103413;1319;61591;-86
2022/01/22 15:32:17;;;;;;;4.80;2.80;;;;;;;22.83;28.95;100844.16;103717;1311;72963;-84
2022/01/22 15:34:58;;;;;;;5.60;3.30;;;;;;;22.83;28.85;100843.45;104237;1311;75828;-85
2022/01/22 15:37:55;;;;;;;4.60;2.60;;;;;;;22.83;28.80;100844.34;104376;1306;61556;-84
2022/01/22 15:40:41;;;;;;;;;;;;;;;;;;;;;